createdAt,value
2023-04-09T00:01:55.716Z,96.73
2023-04-09T00:06:57.342Z,96.18
2023-04-09T00:11:59.140Z,96.23
2023-04-09T00:17:01.461Z,96.62
2023-04-09T00:22:03.064Z,96.50
2023-04-09T00:27:04.698Z,97.11
2023-04-09T00:32:06.762Z,97.12
2023-04-09T00:37:08.569Z,97.51
2023-04-09T00:42:10.240Z,96.86
2023-04-09T00:47:12.052Z,96.42
2023-04-09T00:52:13.792Z,96.72
2023-04-09T00:57:15.985Z,96.70
2023-04-09T01:02:17.708Z,96.69
2023-04-09T01:07:54.965Z,96.91
2023-04-09T01:13:06.294Z,96.84
2023-04-09T01:18:41.179Z,96.42
2023-04-09T01:23:54.940Z,95.61
2023-04-09T01:29:00.619Z,95.44
2023-04-09T01:34:02.739Z,96.53
2023-04-09T01:39:05.207Z,95.86
2023-04-09T01:44:07.944Z,95.15
2023-04-09T01:49:10.510Z,95.32
2023-04-09T01:54:12.107Z,95.55
2023-04-09T01:59:14.323Z,95.24
2023-04-09T02:04:44.252Z,95.95
2023-04-09T02:09:48.654Z,95.91
2023-04-09T02:14:52.568Z,96.49
2023-04-09T02:19:54.182Z,97.16
2023-04-09T02:24:55.886Z,97.16
2023-04-09T02:29:57.607Z,97.63
2023-04-09T02:34:59.328Z,98.10
2023-04-09T02:40:00.997Z,98.32
2023-04-09T02:45:02.643Z,98.38
2023-04-09T02:50:07.481Z,98.37
2023-04-09T02:55:11.327Z,98.35
2023-04-09T03:00:13.454Z,98.81
2023-04-09T03:05:15.535Z,99.14
2023-04-09T03:10:17.206Z,99.29
2023-04-09T03:15:19.121Z,100.00
2023-04-09T03:20:20.725Z,100.00
2023-04-09T03:25:22.468Z,100.00
2023-04-09T03:30:27.750Z,100.00
2023-04-09T03:35:31.745Z,99.21
2023-04-09T03:40:36.511Z,99.57
2023-04-09T03:45:38.298Z,99.26
2023-04-09T03:50:54.240Z,99.70
2023-04-09T03:56:04.981Z,99.61
2023-04-09T04:01:07.894Z,99.70
2023-04-09T04:06:14.868Z,99.93
2023-04-09T04:11:42.674Z,99.32
2023-04-09T04:16:45.365Z,99.05
2023-04-09T04:21:52.245Z,99.60
2023-04-09T04:26:54.659Z,98.92
2023-04-09T04:31:57.466Z,98.64
2023-04-09T04:37:02.933Z,97.86
2023-04-09T04:42:07.487Z,97.79
2023-04-09T04:47:09.263Z,97.79
2023-04-09T04:52:11.364Z,96.16
2023-04-09T04:57:17.515Z,96.05
2023-04-09T05:02:20.419Z,95.09
2023-04-09T05:07:42.177Z,94.48
2023-04-09T05:12:44.373Z,93.82
2023-04-09T05:17:48.798Z,92.27
2023-04-09T05:22:52.626Z,92.68
2023-04-09T05:28:01.967Z,94.22
2023-04-09T05:33:05.509Z,94.26
2023-04-09T05:38:08.058Z,93.48
2023-04-09T05:43:09.951Z,91.34
2023-04-09T05:48:18.523Z,88.74
2023-04-09T05:53:21.185Z,85.47
2023-04-09T05:58:22.926Z,82.58
2023-04-09T06:03:25.643Z,81.30
2023-04-09T06:08:28.858Z,76.02
2023-04-09T06:13:30.597Z,75.09
2023-04-09T06:18:32.722Z,77.44
2023-04-09T06:23:36.035Z,76.10
2023-04-09T06:28:37.988Z,75.91
2023-04-09T06:33:39.643Z,73.38
2023-04-09T06:38:41.282Z,71.97
2023-04-09T06:43:42.911Z,73.47
2023-04-09T06:48:44.818Z,72.68
2023-04-09T06:53:48.223Z,71.53
2023-04-09T06:58:50.169Z,71.35
2023-04-09T07:03:52.542Z,73.58
2023-04-09T07:08:54.813Z,70.64
2023-04-09T07:13:56.961Z,69.89
2023-04-09T07:18:58.643Z,70.55
2023-04-09T07:24:00.704Z,71.30
2023-04-09T07:29:03.766Z,68.81
2023-04-09T07:34:05.488Z,68.22
2023-04-09T07:39:07.120Z,69.74
2023-04-09T07:44:09.431Z,69.81
2023-04-09T07:49:11.194Z,71.83
2023-04-09T07:54:12.862Z,73.40
2023-04-09T07:59:17.423Z,73.73
2023-04-09T08:04:19.411Z,73.16
2023-04-09T08:09:21.326Z,74.29
2023-04-09T08:14:22.929Z,72.14
2023-04-09T08:19:24.826Z,69.14
2023-04-09T08:24:27.351Z,70.57
2023-04-09T08:29:29.336Z,70.61
2023-04-09T08:34:30.977Z,68.71
2023-04-09T08:39:33.041Z,69.46
2023-04-09T08:44:34.826Z,68.21
2023-04-09T08:49:36.639Z,68.62
2023-04-09T08:54:38.409Z,69.24
2023-04-09T08:59:40.062Z,67.67
2023-04-09T09:04:49.114Z,68.59
2023-04-09T09:09:52.708Z,66.11
2023-04-09T09:14:54.413Z,64.88
2023-04-09T09:19:56.145Z,63.87
2023-04-09T09:24:57.969Z,66.04
2023-04-09T09:29:59.659Z,63.98
2023-04-09T09:35:05.329Z,63.30
2023-04-09T09:40:07.838Z,64.31
2023-04-09T09:45:19.573Z,63.57
2023-04-09T09:50:25.151Z,62.96
2023-04-09T09:55:27.960Z,62.01
2023-04-09T10:00:32.620Z,62.21
2023-04-09T10:05:36.245Z,60.57
2023-04-09T10:10:39.365Z,61.26
2023-04-09T10:15:43.217Z,60.75
2023-04-09T10:20:59.508Z,61.73
2023-04-09T10:26:01.753Z,62.36
2023-04-09T10:31:05.356Z,62.44
2023-04-09T10:36:11.121Z,62.44
2023-04-09T10:41:31.501Z,62.64
2023-04-09T10:46:36.895Z,63.80
2023-04-09T10:51:39.239Z,61.18
2023-04-09T10:56:40.898Z,59.71
2023-04-09T11:01:52.665Z,59.74
2023-04-09T11:06:54.718Z,59.56
2023-04-09T11:11:57.848Z,59.39
2023-04-09T11:16:59.540Z,58.41
2023-04-09T11:22:09.347Z,58.04
2023-04-09T11:27:14.154Z,56.86
2023-04-09T11:32:15.829Z,56.94
2023-04-09T11:37:18.479Z,56.86
2023-04-09T11:42:21.992Z,54.93
2023-04-09T11:47:23.711Z,54.74
2023-04-09T11:52:25.649Z,53.41
2023-04-09T11:57:43.189Z,53.83
2023-04-09T12:02:49.327Z,53.04
2023-04-09T12:07:56.284Z,53.82
2023-04-09T12:13:03.405Z,55.26
2023-04-09T12:18:08.569Z,55.23
2023-04-09T12:23:11.657Z,53.82
2023-04-09T12:28:18.668Z,53.61
2023-04-09T12:33:21.371Z,54.93
2023-04-09T12:38:22.988Z,55.05
2023-04-09T12:43:24.601Z,55.25
2023-04-09T12:48:26.793Z,55.03
2023-04-09T12:53:28.553Z,53.74
2023-04-09T12:58:31.399Z,54.83
2023-04-09T13:03:33.300Z,55.64
2023-04-09T13:08:35.254Z,56.66
2023-04-09T13:13:36.910Z,55.96
2023-04-09T13:18:38.509Z,54.97
2023-04-09T13:23:40.570Z,54.33
2023-04-09T13:28:43.084Z,54.33
2023-04-09T13:33:45.964Z,54.30
2023-04-09T13:38:49.325Z,54.20
2023-04-09T13:43:51.308Z,54.04
2023-04-09T13:48:53.363Z,53.54
2023-04-09T13:53:55.107Z,52.71
2023-04-09T13:58:56.880Z,52.61
2023-04-09T14:03:58.630Z,52.43
2023-04-09T14:09:00.558Z,52.24
2023-04-09T14:14:02.284Z,51.42
2023-04-09T14:19:03.868Z,51.51
2023-04-09T14:24:05.984Z,52.26
2023-04-09T14:29:07.775Z,51.32
2023-04-09T14:34:09.367Z,51.80
2023-04-09T14:39:11.282Z,52.30
2023-04-09T14:44:12.956Z,52.35
2023-04-09T14:49:14.626Z,52.18
2023-04-09T14:54:16.803Z,50.91
2023-04-09T14:59:18.488Z,51.58
2023-04-09T15:04:20.150Z,51.18
2023-04-09T15:09:21.800Z,51.60
2023-04-09T15:14:24.071Z,49.66
2023-04-09T15:19:25.912Z,48.10
2023-04-09T15:24:27.553Z,47.22
2023-04-09T15:29:29.221Z,48.47
2023-04-09T15:34:31.054Z,48.68
2023-04-09T15:39:32.747Z,50.77
2023-04-09T15:44:34.662Z,49.42
2023-04-09T15:49:36.928Z,49.71
2023-04-09T15:54:38.660Z,50.18
2023-04-09T15:59:40.452Z,49.94
2023-04-09T16:04:42.236Z,50.28
2023-04-09T16:09:44.050Z,51.58
2023-04-09T16:14:45.787Z,52.49
2023-04-09T16:19:47.458Z,53.58
2023-04-09T16:24:51.644Z,53.90
2023-04-09T16:29:53.277Z,54.90
2023-04-09T16:34:56.093Z,54.97
2023-04-09T16:39:58.135Z,55.32
2023-04-09T16:45:00.038Z,55.07
2023-04-09T16:50:02.925Z,55.26
2023-04-09T16:55:05.273Z,55.36
2023-04-09T17:00:07.716Z,56.06
2023-04-09T17:05:09.889Z,55.58
2023-04-09T17:10:11.620Z,56.42
2023-04-09T17:15:13.280Z,56.30
2023-04-09T17:20:14.946Z,56.24
2023-04-09T17:25:16.898Z,56.70
2023-04-09T17:30:19.828Z,56.89
2023-04-09T17:35:21.456Z,57.31
2023-04-09T17:40:23.144Z,57.91
2023-04-09T17:45:24.820Z,58.58
2023-04-09T17:50:26.410Z,58.97
2023-04-09T17:55:28.253Z,59.73
2023-04-09T18:00:29.933Z,60.35
2023-04-09T18:05:31.746Z,60.85
2023-04-09T18:10:33.570Z,60.76
2023-04-09T18:15:35.525Z,60.75
2023-04-09T18:20:37.192Z,60.87
2023-04-09T18:25:38.941Z,61.08
2023-04-09T18:30:41.835Z,60.93
2023-04-09T18:35:43.493Z,61.39
2023-04-09T18:40:45.341Z,61.50
2023-04-09T18:45:47.204Z,61.97
2023-04-09T18:50:48.934Z,62.79
2023-04-09T18:55:50.582Z,62.69
2023-04-09T19:00:52.220Z,62.92
2023-04-09T19:05:53.847Z,63.79
2023-04-09T19:10:55.601Z,64.27
2023-04-09T19:15:57.274Z,64.89
2023-04-09T19:20:59.033Z,65.80
2023-04-09T19:26:01.209Z,66.85
2023-04-09T19:31:05.860Z,67.83
2023-04-09T19:36:08.196Z,68.70
2023-04-09T19:41:34.667Z,69.31
2023-04-09T19:46:36.334Z,70.25
2023-04-09T19:51:38.024Z,70.95
2023-04-09T19:56:39.636Z,71.92
2023-04-09T20:01:41.318Z,72.34
2023-04-09T20:06:44.257Z,73.35
2023-04-09T20:11:46.594Z,73.80
2023-04-09T20:16:48.330Z,73.97
2023-04-09T20:21:50.016Z,74.84
2023-04-09T20:26:52.098Z,75.97
2023-04-09T20:31:56.731Z,75.83
2023-04-09T20:37:00.682Z,75.45
2023-04-09T20:42:02.351Z,75.79
2023-04-09T20:47:04.001Z,75.45
2023-04-09T20:52:06.990Z,76.17
2023-04-09T20:57:11.059Z,76.30
2023-04-09T21:02:14.351Z,76.44
2023-04-09T21:07:16.223Z,76.58
2023-04-09T21:12:17.831Z,76.44
2023-04-09T21:17:19.516Z,76.48
2023-04-09T21:22:21.209Z,76.89
2023-04-09T21:27:23.206Z,76.38
2023-04-09T21:32:25.273Z,76.46
2023-04-09T21:37:34.955Z,76.36
2023-04-09T21:42:39.807Z,76.76
2023-04-09T21:47:41.447Z,76.48
2023-04-09T21:52:45.098Z,76.25
2023-04-09T21:57:47.016Z,76.91
2023-04-09T22:02:53.924Z,76.65
2023-04-09T22:07:56.075Z,76.50
2023-04-09T22:12:57.720Z,77.08
2023-04-09T22:17:59.494Z,76.91
2023-04-09T22:23:02.709Z,77.74
2023-04-09T22:28:07.367Z,77.95
2023-04-09T22:33:10.196Z,78.26
2023-04-09T22:38:16.230Z,79.44
2023-04-09T22:43:29.242Z,79.95
2023-04-09T22:48:38.166Z,80.33
2023-04-09T22:53:52.729Z,81.08
2023-04-09T22:58:54.611Z,81.69
2023-04-09T23:03:56.743Z,83.15
2023-04-09T23:08:59.871Z,83.60
2023-04-09T23:14:01.598Z,82.48
2023-04-09T23:19:03.578Z,82.17
2023-04-09T23:24:05.432Z,81.39
2023-04-09T23:29:07.312Z,82.32
2023-04-09T23:34:08.951Z,82.11
2023-04-09T23:39:10.992Z,82.62
2023-04-09T23:44:12.646Z,83.50
2023-04-09T23:49:16.115Z,84.06
2023-04-09T23:54:17.741Z,84.42
2023-04-09T23:59:19.413Z,84.66
